الصفحة الرئيسية
METAR-TAF:

METAR-TAF

مطار :

مطار تان سون نهات الدولي

هو تشي منه, فيتنام

دائرة عرض: 10-49N, خط طول: 106-40E, ارتفاع: 19 متر

مراقبة الطقس الحالي

تاريخ ووقت الإصدار 10 دقيقة قبل الساعة 21:00UTC
ريح 1 عقدةمن اتجاهات متغيرة
درجة الحرارة 26°درجة مئوية
الرطوبة 94%
ضغط 1010 hPa
الرؤية 10 كم أو أكثر
غيوم قليلة على ارتفاع 1700 قدم
غيوم متفرقة على ارتفاع 5000 قدم

METAR: VVTS 292100Z VRB01KT 9999 FEW017 SCT050 26/25 Q1010 NOSIG

زمن: 04:10 (21:10 UTC)

توقعات

تاريخ ووقت الإصدار 4ساعات و 10 دقيقة قبل الساعة 17:00UTC
التوقعات صالحة من29 الساعة 18 UTC إلى 30 الساعة 24 UTC
ريح 6 عقدة من الجنوب الغربي
الرؤية 10 كم أو أكثر
غيوم متفرقة على ارتفاع 1500 قدم
غيوم متفرقة على ارتفاع 4000 قدم
مؤقت
من 30 الساعة 08 UTC إلى 30 الساعة 12 UTC
ريح 15 عقدة من الغرب/الجنوب الغربي تتزايد حتى 27 عقدة
الرؤية: 3000 متر
غيوم مفككة على ارتفاع 1300 قدم
غيوم متفرقة على ارتفاع 1500 قدم, مزنة ركامية.
عاصفة رعدية, مطر

TAF: VVTS 291700Z 2918/3024 23006KT 9999 SCT015 SCT040 TEMPO 3008/3012 25015G27KT 3000 TSRA BKN013 SCT015CB

أرصاد الطقس والتوقعات من أكثر من 4000 مطار (تقارير الطقس للمطار METAR والتنبؤ بالطقس بالمطارTAF).

المحطات المتاحة هي النقط الصفراء والحمراء على الخريطة.

حرك المؤشر فوق النقطة لمعرفة اسم المحطة.

ثم انقر لمعرفة أرصاد وتوقعات الطقس.

لتغيير الخارطة: اضغط على الأزرار الخضراء مع رمز الصليب الأسود للتكبير. على الزر الأخضر مع شرطة للتصغير، أو على الأسهم الخضراء للخرائط المجاورة.


METAR-TAF: